CheckWX is a tool to help pilots better visualize weather data.  It is not intended as a substitute for an official pre-flight weather briefing.

19:15:27 UTC

KSRR METAR
Sierra Blanca Regional Airport
Ruidoso, New Mexico, USA
Current

20 mins ago

KSRR 261855Z AUTO 23029G36KT 10SM CLR 24/M03 A3010 RMK AO2
Observed
May-26 @ 18:55 UTC
Wind
  • 230° at 29 KTS
  • Gusting to 36 KTS
Visibility
10 SM
Flight Rules
VFR
Cloud Levels
  • Clear skies
Temperature
24°C / 75°F
Dewpoint
-3°C / 27°F
Humidity
16%
Altimeter
30.1" Hg
Pressure
1019.32 hPa
Previous

40 mins ago

KSRR 261835Z AUTO 23030G40KT 10SM CLR 23/M03 A3011 RMK AO2
Observed
May-26 @ 18:35 UTC
Wind
  • 230° at 30 KTS
  • Gusting to 40 KTS
Visibility
10 SM
Flight Rules
VFR
Cloud Levels
  • Clear skies
Temperature
23°C / 73°F
Dewpoint
-3°C / 27°F
Humidity
17%
Altimeter
30.11" Hg
Pressure
1019.62 hPa
Previous

60 mins ago

KSRR 261815Z AUTO 21028G36KT 10SM CLR 23/M03 A3012 RMK AO2
Observed
May-26 @ 18:15 UTC
Wind
  • 210° at 28 KTS
  • Gusting to 36 KTS
Visibility
10 SM
Flight Rules
VFR
Cloud Levels
  • Clear skies
Temperature
23°C / 73°F
Dewpoint
-3°C / 27°F
Humidity
17%
Altimeter
30.12" Hg
Pressure
1020.02 hPa